createdAt,value
2023-06-22T07:12:46.521Z,92.30
2023-06-22T07:15:14.886Z,91.40
2023-06-22T07:17:42.544Z,90.60
2023-06-22T07:20:11.690Z,90.30
2023-06-22T07:22:40.369Z,90.40
2023-06-22T07:25:11.746Z,90.30
2023-06-22T07:27:58.708Z,90.00
2023-06-22T07:30:32.847Z,89.40
2023-06-22T07:33:42.889Z,89.40
2023-06-22T07:36:10.077Z,90.00
2023-06-22T07:38:37.245Z,89.70
2023-06-22T07:41:06.795Z,89.30
2023-06-22T07:43:35.715Z,89.40
2023-06-22T07:46:03.108Z,88.50
2023-06-22T07:48:30.641Z,85.90
2023-06-22T07:50:57.851Z,83.10
2023-06-22T07:53:25.135Z,81.90
2023-06-22T07:55:52.361Z,80.80
2023-06-22T07:58:20.465Z,79.50
2023-06-22T08:00:47.915Z,78.70
2023-06-22T08:03:15.049Z,76.50
2023-06-22T08:05:42.285Z,76.70
2023-06-22T08:08:09.365Z,77.40
2023-06-22T08:10:37.450Z,79.60
2023-06-22T08:13:04.554Z,80.30
2023-06-22T08:15:31.926Z,80.80
2023-06-22T08:18:00.356Z,80.60
2023-06-22T08:20:27.807Z,83.10
2023-06-22T08:22:56.829Z,83.70
2023-06-22T08:25:23.817Z,83.00
2023-06-22T08:27:50.991Z,82.20
2023-06-22T08:30:19.881Z,83.00
2023-06-22T08:32:46.913Z,81.80
2023-06-22T08:35:14.087Z,79.80
2023-06-22T08:37:41.246Z,78.50
2023-06-22T08:40:11.177Z,75.80
2023-06-22T08:42:39.441Z,75.20
2023-06-22T08:45:07.193Z,75.60
2023-06-22T08:47:34.767Z,74.80
2023-06-22T08:50:04.553Z,74.70
2023-06-22T08:52:31.872Z,75.90
2023-06-22T08:55:02.230Z,76.10
2023-06-22T08:57:30.337Z,76.70
2023-06-22T08:59:59.918Z,77.50
2023-06-22T09:02:32.228Z,76.70
2023-06-22T09:04:59.996Z,76.80
2023-06-22T09:07:27.398Z,77.10
2023-06-22T09:09:54.685Z,77.00
2023-06-22T09:12:24.260Z,76.30
2023-06-22T09:14:51.360Z,76.20
2023-06-22T09:17:21.013Z,76.60
2023-06-22T09:19:48.857Z,75.60
2023-06-22T09:22:16.200Z,76.60
2023-06-22T09:24:43.426Z,76.60
2023-06-22T09:27:10.603Z,77.30
2023-06-22T09:29:37.701Z,77.20
2023-06-22T09:32:05.201Z,76.50
2023-06-22T09:34:32.762Z,76.70
2023-06-22T09:37:01.964Z,75.60
2023-06-22T09:39:29.123Z,75.80
2023-06-22T09:41:56.228Z,78.20
2023-06-22T09:44:23.342Z,77.90
2023-06-22T09:46:50.406Z,78.60
2023-06-22T09:49:17.525Z,78.80
2023-06-22T09:51:44.667Z,78.00
2023-06-22T09:54:11.692Z,79.70
2023-06-22T09:56:38.948Z,78.50
2023-06-22T09:59:17.981Z,78.00
2023-06-22T10:01:46.117Z,79.30
2023-06-22T10:04:13.546Z,78.50
2023-06-22T10:06:41.989Z,78.50
2023-06-22T10:09:09.508Z,79.10
2023-06-22T10:11:36.937Z,79.80
2023-06-22T10:14:05.444Z,78.50
2023-06-22T10:16:33.434Z,78.00
